Time;durP1;ratioP1;P1;durP2;ratioP2;P2;SDS_P1;SDS_P2;PMS_P1;PMS_P2;Temp;Humidity;BMP_temperature;BMP_pressure;BME280_temperature;BME280_humidity;BME280_pressure;Samples;Min_cycle;Max_cycle;Signal;HPM_P1;HPM_P2
2021/06/10 00:01:53;;;;;;;9.30;2.60;;;19.20;99.90;;;;;;5064751;28;20198;-72
2021/06/10 00:04:20;;;;;;;10.63;3.00;;;19.20;99.90;;;;;;5065348;28;20191;-73
2021/06/10 00:06:46;;;;;;;7.80;2.50;;;19.10;99.90;;;;;;5047097;28;20179;-73
2021/06/10 00:09:12;;;;;;;9.73;2.90;;;19.20;99.90;;;;;;5045119;28;20283;-73
2021/06/10 00:11:39;;;;;;;14.10;2.80;;;19.40;99.90;;;;;;5061726;28;20202;-73
2021/06/10 00:14:05;;;;;;;9.90;2.67;;;19.30;99.90;;;;;;5064867;28;20183;-73
2021/06/10 00:16:31;;;;;;;14.50;2.90;;;19.10;99.90;;;;;;5063547;28;20804;-73
2021/06/10 00:18:58;;;;;;;7.97;2.43;;;19.00;99.90;;;;;;5061603;28;20214;-75
2021/06/10 00:21:25;;;;;;;9.67;3.07;;;18.90;99.90;;;;;;5058572;28;20269;-75
2021/06/10 00:23:51;;;;;;;11.23;3.00;;;19.00;99.90;;;;;;5061308;28;20175;-74
2021/06/10 00:26:17;;;;;;;7.17;2.77;;;19.10;99.90;;;;;;5061767;28;21018;-73
2021/06/10 00:28:44;;;;;;;8.37;2.67;;;19.20;99.90;;;;;;5058168;28;20570;-76
2021/06/10 00:31:10;;;;;;;11.77;2.63;;;19.20;99.90;;;;;;5062730;28;20678;-75
2021/06/10 00:33:36;;;;;;;12.43;3.20;;;19.00;99.90;;;;;;5057277;28;20198;-73
2021/06/10 00:36:03;;;;;;;7.83;3.33;;;18.90;99.90;;;;;;5062534;28;20363;-73
2021/06/10 00:38:30;;;;;;;6.20;3.10;;;18.80;99.90;;;;;;5060942;28;20223;-74
2021/06/10 00:40:56;;;;;;;8.80;2.83;;;19.00;99.90;;;;;;5059720;28;20212;-72
2021/06/10 00:43:22;;;;;;;9.37;3.00;;;19.10;99.90;;;;;;5063983;28;20175;-73
2021/06/10 00:45:48;;;;;;;9.40;3.23;;;19.10;99.90;;;;;;5063919;28;20756;-73
2021/06/10 00:48:15;;;;;;;7.57;2.90;;;19.10;99.90;;;;;;5058362;28;20198;-73
2021/06/10 00:50:46;;;;;;;7.60;2.90;;;19.10;99.90;;;;;;5063271;28;20524;-73
2021/06/10 00:53:30;;;;;;;11.73;2.90;;;19.10;99.90;;;;;;5046756;28;20187;-73
2021/06/10 00:56:00;;;;;;;12.50;3.10;;;19.00;99.90;;;;;;5056116;28;20193;-73
2021/06/10 00:58:28;;;;;;;8.50;3.13;;;19.00;99.90;;;;;;5063679;28;20936;-73
2021/06/10 01:00:55;;;;;;;12.37;3.40;;;19.20;99.90;;;;;;5058104;28;20175;-73
2021/06/10 01:03:23;;;;;;;11.77;3.43;;;18.90;99.90;;;;;;5060504;28;20182;-73
2021/06/10 01:05:54;;;;;;;9.13;3.43;;;18.70;99.90;;;;;;5062925;28;20243;-74
2021/06/10 01:08:42;;;;;;;17.77;3.90;;;18.80;99.90;;;;;;5070137;28;20571;-73
2021/06/10 01:11:54;;;;;;;12.97;4.03;;;18.90;99.90;;;;;;5058715;28;20265;-74
2021/06/10 01:14:38;;;;;;;12.57;4.47;;;18.90;99.90;;;;;;5047305;28;20202;-73
2021/06/10 01:17:07;;;;;;;12.67;3.63;;;19.10;99.90;;;;;;5057314;28;20175;-74
2021/06/10 01:20:00;;;;;;;12.23;3.67;;;19.10;99.90;;;;;;5057398;28;20326;-75
2021/06/10 01:22:26;;;;;;;9.67;3.43;;;19.10;99.90;;;;;;5059662;28;20265;-74
2021/06/10 01:25:14;;;;;;;12.50;3.30;;;19.00;99.90;;;;;;5059098;28;20222;-74
2021/06/10 01:27:46;;;;;;;9.47;3.40;;;18.90;99.90;;;;;;5043407;28;20249;-74
2021/06/10 01:30:27;;;;;;;7.67;3.50;;;18.80;99.90;;;;;;5046277;28;20191;-74
2021/06/10 01:33:19;;;;;;;12.17;3.60;;;18.80;99.90;;;;;;5075437;28;20260;-74
2021/06/10 01:35:54;;;;;;;14.17;4.23;;;18.90;99.90;;;;;;5058319;28;20248;-73
2021/06/10 01:38:23;;;;;;;10.87;3.23;;;18.90;99.90;;;;;;5062329;28;20225;-73
2021/06/10 01:40:51;;;;;;;14.47;3.50;;;18.80;99.90;;;;;;5059315;28;20179;-75
2021/06/10 01:43:20;;;;;;;13.23;3.50;;;18.90;99.90;;;;;;5060637;28;20197;-73
2021/06/10 01:45:50;;;;;;;10.63;3.63;;;19.10;99.90;;;;;;5061655;28;20254;-73
2021/06/10 01:48:22;;;;;;;10.20;4.13;;;19.10;99.90;;;;;;5062093;28;20195;-73
2021/06/10 01:50:51;;;;;;;11.17;4.30;;;19.10;99.90;;;;;;5059219;28;20279;-74
2021/06/10 01:53:19;;;;;;;12.33;4.00;;;19.10;99.90;;;;;;5057015;28;20298;-72
2021/06/10 01:55:48;;;;;;;16.60;4.73;;;19.30;99.90;;;;;;5060801;28;20233;-70
2021/06/10 01:58:16;;;;;;;19.30;4.23;;;19.50;99.90;;;;;;5047322;28;20863;-73
2021/06/10 02:00:45;;;;;;;11.30;4.00;;;19.40;99.90;;;;;;5063161;28;21375;-71
2021/06/10 02:03:13;;;;;;;9.63;4.00;;;19.50;99.90;;;;;;5082553;28;20526;-74
2021/06/10 02:05:41;;;;;;;14.27;3.83;;;19.50;99.90;;;;;;5062742;28;20211;-73
2021/06/10 02:08:16;;;;;;;18.77;4.33;;;19.30;99.90;;;;;;5061307;28;20271;-73
2021/06/10 02:10:52;;;;;;;13.87;3.90;;;19.20;99.90;;;;;;5058833;28;20225;-75
2021/06/10 02:13:22;;;;;;;10.73;3.80;;;19.10;99.90;;;;;;5059062;28;20186;-73
2021/06/10 02:15:52;;;;;;;12.27;3.87;;;19.00;99.90;;;;;;5061196;28;20675;-74
2021/06/10 02:18:19;;;;;;;12.67;3.87;;;18.80;99.90;;;;;;5061911;28;20218;-73
2021/06/10 02:20:45;;;;;;;16.70;4.10;;;18.90;99.90;;;;;;5055601;28;20228;-73
2021/06/10 02:23:12;;;;;;;9.17;3.57;;;18.80;99.90;;;;;;5054611;28;20241;-73
2021/06/10 02:25:38;;;;;;;10.57;3.77;;;18.80;99.90;;;;;;5059690;28;21150;-74
2021/06/10 02:28:06;;;;;;;18.70;4.47;;;19.20;99.90;;;;;;5059755;28;20178;-75
2021/06/10 02:30:34;;;;;;;9.73;3.83;;;19.10;99.90;;;;;;5053616;28;20273;-72
2021/06/10 02:33:01;;;;;;;11.67;4.03;;;19.10;99.90;;;;;;5057705;28;20528;-74
2021/06/10 02:35:28;;;;;;;12.20;4.00;;;19.20;99.90;;;;;;5058945;28;20187;-73
2021/06/10 02:38:00;;;;;;;15.80;4.30;;;19.00;99.90;;;;;;5054896;28;20190;-74
2021/06/10 02:40:33;;;;;;;13.73;4.03;;;18.90;99.90;;;;;;5044528;28;20631;-74
2021/06/10 02:43:05;;;;;;;13.47;3.67;;;18.70;99.90;;;;;;5043114;28;20213;-75
2021/06/10 02:45:33;;;;;;;16.07;4.33;;;18.60;99.90;;;;;;5059909;28;20196;-74
2021/06/10 02:48:02;;;;;;;16.43;3.60;;;18.50;99.90;;;;;;5061473;28;20194;-74
2021/06/10 02:50:31;;;;;;;9.83;3.63;;;18.60;99.90;;;;;;5056837;28;20189;-74
2021/06/10 02:53:00;;;;;;;10.43;3.67;;;18.80;99.90;;;;;;5062543;28;20191;-73
2021/06/10 02:55:32;;;;;;;10.83;3.50;;;19.10;99.90;;;;;;5056492;28;20277;-75
2021/06/10 02:57:59;;;;;;;13.97;4.17;;;19.00;99.90;;;;;;5057485;28;20187;-73
2021/06/10 03:00:33;;;;;;;15.27;3.80;;;19.20;99.90;;;;;;5053183;28;20660;-75
2021/06/10 03:03:02;;;;;;;16.03;4.47;;;19.30;99.90;;;;;;5057523;28;20197;-76
2021/06/10 03:05:31;;;;;;;12.00;3.50;;;19.10;99.90;;;;;;5060711;28;20833;-75
2021/06/10 03:07:58;;;;;;;12.57;3.93;;;19.00;99.90;;;;;;5058173;28;20627;-74
2021/06/10 03:10:33;;;;;;;13.33;4.27;;;18.80;99.90;;;;;;5060509;28;20183;-74
2021/06/10 03:13:02;;;;;;;10.27;3.17;;;18.80;99.90;;;;;;5039132;28;20191;-74
2021/06/10 03:15:32;;;;;;;10.23;3.70;;;18.80;99.90;;;;;;5043032;28;20776;-74
2021/06/10 03:17:59;;;;;;;11.63;3.57;;;18.80;99.90;;;;;;5057598;28;20202;-74
2021/06/10 03:20:26;;;;;;;12.10;3.40;;;18.80;99.90;;;;;;5054866;28;20194;-74
2021/06/10 03:22:54;;;;;;;8.60;3.00;;;18.90;99.90;;;;;;5056324;28;20286;-74
2021/06/10 03:25:22;;;;;;;16.27;3.83;;;18.80;99.90;;;;;;5042199;28;20676;-74
2021/06/10 03:27:49;;;;;;;8.40;3.20;;;18.90;99.90;;;;;;5061167;28;20274;-73
2021/06/10 03:30:17;;;;;;;11.17;3.30;;;19.10;99.90;;;;;;5060011;28;20266;-74
2021/06/10 03:32:44;;;;;;;9.70;3.00;;;19.10;99.90;;;;;;5053529;28;20190;-74
2021/06/10 03:35:12;;;;;;;8.63;3.70;;;18.80;99.90;;;;;;5042608;28;20272;-73
2021/06/10 03:37:41;;;;;;;12.43;3.30;;;18.70;99.90;;;;;;5060224;28;20639;-74
2021/06/10 03:40:11;;;;;;;7.63;3.10;;;18.60;99.90;;;;;;5058699;28;20568;-74
2021/06/10 03:42:39;;;;;;;10.53;3.00;;;18.60;99.90;;;;;;5045072;28;20575;-74
2021/06/10 03:45:09;;;;;;;9.67;3.17;;;18.60;99.90;;;;;;5059528;28;20195;-74
2021/06/10 03:47:37;;;;;;;8.63;3.23;;;18.60;99.90;;;;;;5058934;28;20811;-74
2021/06/10 03:50:07;;;;;;;10.50;3.03;;;18.60;99.90;;;;;;5061276;28;20786;-74
2021/06/10 03:52:34;;;;;;;13.17;3.00;;;18.70;99.90;;;;;;5046159;28;20187;-73
2021/06/10 03:55:04;;;;;;;11.87;3.10;;;18.70;99.90;;;;;;5057895;28;20192;-72
2021/06/10 03:57:32;;;;;;;10.63;3.40;;;18.80;99.90;;;;;;5062310;28;20195;-72
2021/06/10 03:59:59;;;;;;;10.40;2.90;;;18.80;99.90;;;;;;5066132;28;20221;-73
2021/06/10 04:02:26;;;;;;;7.57;2.93;;;18.90;99.90;;;;;;5062204;28;20222;-73
2021/06/10 04:04:54;;;;;;;9.60;3.10;;;19.00;99.90;;;;;;5043651;28;20369;-72
2021/06/10 04:07:20;;;;;;;16.00;3.93;;;19.10;99.90;;;;;;5048495;28;20182;-73
2021/06/10 04:09:47;;;;;;;8.57;3.13;;;19.20;99.90;;;;;;5046079;28;20742;-74
2021/06/10 04:12:14;;;;;;;10.40;3.00;;;19.30;99.90;;;;;;5062045;28;20198;-73
2021/06/10 04:14:41;;;;;;;8.67;3.03;;;19.40;99.90;;;;;;5058887;28;20194;-73
2021/06/10 04:17:07;;;;;;;9.90;3.10;;;19.40;99.90;;;;;;5058650;28;20312;-73
2021/06/10 04:19:33;;;;;;;8.43;2.80;;;19.50;99.90;;;;;;5058778;28;20227;-72
2021/06/10 04:22:00;;;;;;;12.93;3.47;;;19.70;99.90;;;;;;5061495;28;20236;-74
2021/06/10 04:24:26;;;;;;;10.70;3.40;;;19.80;99.90;;;;;;5065292;28;20376;-73
2021/06/10 04:26:52;;;;;;;13.10;3.40;;;19.90;99.90;;;;;;5059520;28;20200;-70
2021/06/10 04:29:19;;;;;;;7.87;3.33;;;20.00;99.90;;;;;;5061976;28;20270;-71
2021/06/10 04:31:45;;;;;;;12.10;3.43;;;20.00;99.90;;;;;;5061837;28;20266;-71
2021/06/10 04:34:12;;;;;;;8.40;3.37;;;20.00;99.90;;;;;;5063191;28;20198;-70
2021/06/10 04:36:38;;;;;;;7.30;3.30;;;19.90;99.90;;;;;;5060382;28;20241;-69
2021/06/10 04:39:04;;;;;;;8.63;3.10;;;20.00;99.90;;;;;;5058153;28;20245;-71
2021/06/10 04:41:31;;;;;;;9.80;3.43;;;19.90;99.90;;;;;;5058965;28;20218;-71
2021/06/10 04:43:57;;;;;;;16.33;3.07;;;20.00;99.90;;;;;;5064968;28;20693;-70
2021/06/10 04:46:24;;;;;;;13.90;3.20;;;20.10;99.90;;;;;;5061346;28;20294;-70
2021/06/10 04:48:50;;;;;;;8.23;3.10;;;20.10;99.90;;;;;;5064488;28;20191;-71
2021/06/10 04:51:16;;;;;;;9.80;3.43;;;20.30;99.90;;;;;;5063337;28;20198;-70
2021/06/10 04:53:45;;;;;;;5.90;3.23;;;20.50;99.90;;;;;;5062154;28;20227;-70
2021/06/10 04:56:11;;;;;;;8.07;3.50;;;20.60;99.90;;;;;;5060978;28;20217;-72
2021/06/10 04:58:38;;;;;;;7.80;3.43;;;20.70;99.90;;;;;;5059449;28;20210;-72
2021/06/10 05:01:05;;;;;;;11.13;3.43;;;20.70;99.90;;;;;;5062157;28;21075;-71
2021/06/10 05:03:32;;;;;;;8.60;3.60;;;20.80;99.90;;;;;;5061062;28;20291;-71
2021/06/10 05:05:58;;;;;;;8.97;3.27;;;20.70;99.90;;;;;;5058960;28;20214;-71
2021/06/10 05:08:24;;;;;;;15.43;3.77;;;20.70;99.90;;;;;;5060333;28;20183;-73
2021/06/10 05:10:51;;;;;;;8.50;3.30;;;20.70;99.90;;;;;;5060005;28;20198;-72
2021/06/10 05:13:17;;;;;;;16.57;3.43;;;20.90;99.90;;;;;;5061590;28;20687;-71
2021/06/10 05:15:43;;;;;;;13.00;3.40;;;20.80;99.90;;;;;;5048136;28;20233;-72
2021/06/10 05:18:10;;;;;;;11.30;3.23;;;21.10;99.90;;;;;;5060211;28;20245;-71
2021/06/10 05:20:36;;;;;;;10.27;3.50;;;21.20;99.90;;;;;;5056872;28;20187;-72
2021/06/10 05:23:03;;;;;;;14.00;4.07;;;21.10;99.90;;;;;;5059273;28;20659;-71
2021/06/10 05:25:30;;;;;;;12.03;3.70;;;21.30;99.90;;;;;;5059291;28;20207;-71
2021/06/10 05:27:56;;;;;;;12.33;4.30;;;21.50;99.90;;;;;;5061961;28;20179;-73
2021/06/10 05:30:22;;;;;;;13.00;4.03;;;21.50;99.90;;;;;;5062286;28;20603;-71
2021/06/10 05:32:50;;;;;;;11.70;4.63;;;21.50;99.90;;;;;;5043683;28;20184;-72
2021/06/10 05:35:16;;;;;;;13.00;3.63;;;21.40;99.90;;;;;;5057941;28;20287;-72
2021/06/10 05:37:44;;;;;;;14.73;4.10;;;21.50;99.90;;;;;;5058758;28;20202;-72
2021/06/10 05:40:11;;;;;;;11.07;3.93;;;21.70;99.90;;;;;;5060142;28;20239;-71
2021/06/10 05:42:38;;;;;;;7.97;3.20;;;21.60;99.90;;;;;;5061076;28;20309;-73
2021/06/10 05:45:06;;;;;;;6.83;3.17;;;21.60;99.90;;;;;;5057947;28;20209;-72
2021/06/10 05:47:33;;;;;;;8.23;3.30;;;21.70;99.90;;;;;;5056259;28;20552;-72
2021/06/10 05:49:59;;;;;;;10.73;2.83;;;21.70;99.90;;;;;;5059817;28;20274;-72
2021/06/10 05:52:26;;;;;;;6.93;3.20;;;21.70;99.90;;;;;;5057950;28;20190;-72
2021/06/10 05:54:53;;;;;;;8.63;3.13;;;21.90;99.90;;;;;;5061189;28;20812;-72
2021/06/10 05:57:19;;;;;;;10.07;3.20;;;22.00;99.90;;;;;;5044288;28;20194;-73
2021/06/10 05:59:48;;;;;;;7.67;3.47;;;22.10;99.90;;;;;;5059200;28;20283;-72
2021/06/10 06:02:15;;;;;;;9.80;3.43;;;22.20;99.90;;;;;;5074518;28;20659;-74
2021/06/10 06:04:43;;;;;;;7.67;2.90;;;22.30;99.90;;;;;;5059378;28;20254;-74
2021/06/10 06:07:11;;;;;;;8.20;3.60;;;22.30;99.90;;;;;;5059676;28;20255;-74
2021/06/10 06:09:38;;;;;;;10.70;3.60;;;22.30;99.90;;;;;;5063255;28;20220;-75
2021/06/10 06:12:11;;;;;;;13.03;3.77;;;22.40;99.90;;;;;;5044364;28;20856;-73
2021/06/10 06:14:40;;;;;;;11.57;3.87;;;22.50;99.90;;;;;;5059013;28;20219;-73
2021/06/10 06:17:09;;;;;;;13.43;4.00;;;22.50;99.90;;;;;;5045239;28;20219;-73
2021/06/10 06:19:36;;;;;;;10.87;4.07;;;22.70;99.90;;;;;;5059915;28;20221;-73
2021/06/10 06:22:05;;;;;;;9.47;3.50;;;22.90;99.90;;;;;;5058444;28;20328;-72
2021/06/10 06:24:32;;;;;;;11.07;3.30;;;22.90;99.90;;;;;;5074547;28;20183;-72
2021/06/10 06:27:00;;;;;;;13.03;3.50;;;22.80;99.90;;;;;;5040702;28;20183;-72
2021/06/10 06:29:26;;;;;;;11.07;3.57;;;23.00;99.90;;;;;;5062361;28;20197;-72
2021/06/10 06:31:53;;;;;;;8.90;3.50;;;23.00;99.90;;;;;;5058792;28;20175;-73
2021/06/10 06:34:19;;;;;;;7.67;3.23;;;23.00;99.90;;;;;;5056547;28;20337;-72
2021/06/10 06:36:45;;;;;;;7.40;3.60;;;22.90;99.90;;;;;;5056221;28;20195;-72
2021/06/10 06:39:13;;;;;;;8.87;3.50;;;22.90;99.90;;;;;;5057761;28;20221;-73
2021/06/10 06:41:40;;;;;;;13.30;3.53;;;23.10;99.90;;;;;;5036929;28;20249;-72
2021/06/10 06:44:07;;;;;;;11.47;3.00;;;23.10;99.90;;;;;;5057742;28;20905;-72
2021/06/10 06:46:34;;;;;;;8.97;3.30;;;23.20;99.90;;;;;;5043894;28;20225;-73
2021/06/10 06:49:01;;;;;;;11.00;3.60;;;23.20;99.90;;;;;;5050131;28;20370;-73
2021/06/10 06:51:28;;;;;;;11.93;3.50;;;23.10;99.90;;;;;;5049919;28;20183;-73
2021/06/10 06:53:55;;;;;;;6.63;3.30;;;23.10;99.90;;;;;;5041916;28;21902;-72
2021/06/10 06:56:25;;;;;;;10.17;3.07;;;23.10;99.90;;;;;;5049360;28;20195;-72
2021/06/10 06:58:52;;;;;;;14.60;3.60;;;23.40;99.90;;;;;;5054286;28;20290;-73
2021/06/10 07:01:21;;;;;;;11.17;3.40;;;23.60;99.90;;;;;;5060282;28;20186;-73
2021/06/10 07:03:48;;;;;;;8.73;3.20;;;23.70;99.90;;;;;;5053796;28;20278;-74
2021/06/10 07:06:15;;;;;;;9.30;3.17;;;23.70;99.90;;;;;;5054673;28;20215;-73
2021/06/10 07:08:41;;;;;;;7.80;3.50;;;23.80;99.90;;;;;;5054025;28;20199;-72
2021/06/10 07:11:08;;;;;;;14.63;4.23;;;23.90;99.90;;;;;;5050899;28;20238;-73
2021/06/10 07:13:34;;;;;;;10.80;4.37;;;23.90;99.90;;;;;;5058047;28;20221;-72
2021/06/10 07:16:01;;;;;;;13.67;3.30;;;23.90;99.90;;;;;;5055516;28;20246;-73
2021/06/10 07:18:27;;;;;;;10.57;4.00;;;23.90;99.90;;;;;;5055946;28;20187;-72
2021/06/10 07:20:55;;;;;;;10.33;3.40;;;24.20;99.90;;;;;;5056847;28;20182;-72
2021/06/10 07:23:21;;;;;;;9.57;3.67;;;24.40;99.90;;;;;;5061232;28;20186;-72
2021/06/10 07:25:47;;;;;;;10.40;3.70;;;24.50;99.90;;;;;;5058500;28;20552;-72
2021/06/10 07:28:17;;;;;;;9.73;4.00;;;24.60;99.90;;;;;;5046929;28;20225;-71
2021/06/10 07:30:44;;;;;;;10.10;3.80;;;24.40;99.90;;;;;;5057489;28;20304;-71
2021/06/10 07:33:11;;;;;;;6.77;3.70;;;24.20;99.90;;;;;;5058007;28;20253;-73
2021/06/10 07:35:39;;;;;;;10.00;3.80;;;23.80;99.90;;;;;;5058365;28;20190;-72
2021/06/10 07:38:10;;;;;;;8.30;4.27;;;23.90;99.90;;;;;;5063046;28;20301;-72
2021/06/10 07:40:39;;;;;;;9.83;4.17;;;24.10;99.90;;;;;;5042565;28;20224;-71
2021/06/10 07:43:10;;;;;;;12.57;3.73;;;24.20;99.90;;;;;;5062097;28;20202;-72
2021/06/10 07:45:43;;;;;;;16.87;4.20;;;24.30;99.90;;;;;;5058610;28;20214;-71
2021/06/10 07:48:11;;;;;;;12.17;4.30;;;24.30;99.90;;;;;;5059984;28;20183;-73
2021/06/10 07:50:38;;;;;;;14.33;4.10;;;24.40;99.90;;;;;;5053612;28;20213;-73
2021/06/10 07:53:05;;;;;;;9.70;3.97;;;24.50;99.90;;;;;;5061430;28;20571;-73
2021/06/10 07:55:36;;;;;;;11.60;3.70;;;24.50;99.90;;;;;;5049194;28;20183;-74
2021/06/10 07:58:06;;;;;;;9.53;3.80;;;24.60;99.90;;;;;;5047304;28;20204;-74
2021/06/10 08:00:33;;;;;;;10.47;3.87;;;24.70;99.90;;;;;;5057685;28;20221;-73
2021/06/10 08:02:59;;;;;;;10.57;3.90;;;25.10;99.90;;;;;;5062188;28;20183;-72
2021/06/10 08:05:27;;;;;;;15.23;3.73;;;25.10;99.90;;;;;;5063041;28;20333;-72
2021/06/10 08:07:58;;;;;;;14.13;4.07;;;25.10;99.90;;;;;;5059141;28;20224;-73
2021/06/10 08:11:09;;;;;;;;;;;;;;;;;;;;;
2021/06/10 08:14:09;;;;;;;10.23;3.50;;;25.30;99.90;;;;;;5057317;28;20186;-73
2021/06/10 08:16:35;;;;;;;14.63;4.43;;;25.40;99.90;;;;;;5053573;28;20198;-74
2021/06/10 08:19:03;;;;;;;14.07;4.00;;;25.30;99.90;;;;;;5040446;28;20215;-74
2021/06/10 08:21:30;;;;;;;12.67;3.77;;;25.30;99.90;;;;;;5058592;28;20191;-73
2021/06/10 08:23:58;;;;;;;10.60;3.60;;;25.50;99.90;;;;;;5054454;28;20193;-72
2021/06/10 08:26:25;;;;;;;13.17;3.77;;;25.60;99.90;;;;;;5061819;28;20191;-72
2021/06/10 08:28:51;;;;;;;11.25;3.67;;;25.60;99.90;;;;;;5059286;28;20549;-73
2021/06/10 08:31:18;;;;;;;9.35;3.17;;;25.70;99.90;;;;;;5062258;28;20206;-71
2021/06/10 08:33:44;;;;;;;14.90;3.47;;;25.60;99.90;;;;;;5046236;28;20539;-71
2021/06/10 08:36:11;;;;;;;12.20;3.23;;;25.80;99.90;;;;;;5039130;28;20949;-73
2021/06/10 08:38:38;;;;;;;16.15;4.28;;;26.10;99.90;;;;;;5063696;28;20222;-72
2021/06/10 08:41:05;;;;;;;13.52;3.97;;;25.80;99.90;;;;;;5060882;28;20213;-72
2021/06/10 08:43:33;;;;;;;12.20;3.67;;;25.90;99.90;;;;;;5060029;28;20179;-71
2021/06/10 08:46:07;;;;;;;9.68;3.13;;;26.10;99.90;;;;;;5057531;28;20187;-73
2021/06/10 08:48:36;;;;;;;9.77;3.33;;;26.00;99.90;;;;;;5067377;28;20258;-71
2021/06/10 08:51:07;;;;;;;10.85;2.72;;;26.20;99.90;;;;;;5056418;28;20233;-73
2021/06/10 08:53:34;;;;;;;15.47;3.30;;;26.30;99.90;;;;;;5056383;28;20221;-73
2021/06/10 08:56:01;;;;;;;9.07;3.05;;;26.20;99.90;;;;;;5055141;28;20194;-73
2021/06/10 08:58:30;;;;;;;9.27;3.17;;;26.30;99.90;;;;;;5041228;28;20184;-73
2021/06/10 09:00:58;;;;;;;12.93;3.67;;;26.50;99.90;;;;;;5061310;28;20191;-74
2021/06/10 09:03:34;;;;;;;9.88;3.38;;;26.70;99.90;;;;;;5062785;28;20673;-74
2021/06/10 09:06:17;;;;;;;8.55;3.30;;;26.90;99.90;;;;;;5057147;28;20835;-71
2021/06/10 09:08:53;;;;;;;11.40;3.75;;;26.80;99.90;;;;;;5052754;28;20215;-72
2021/06/10 09:11:26;;;;;;;12.65;4.03;;;27.00;99.90;;;;;;5043792;28;20213;-71
2021/06/10 09:13:58;;;;;;;12.38;3.50;;;26.80;99.90;;;;;;5057143;28;20201;-72
2021/06/10 09:16:25;;;;;;;18.60;3.67;;;26.90;99.90;;;;;;5055370;28;20592;-73
2021/06/10 09:18:56;;;;;;;11.05;3.88;;;27.20;99.90;;;;;;5057939;28;20209;-70
2021/06/10 09:21:32;;;;;;;11.65;3.75;;;27.20;99.90;;;;;;5038966;28;20497;-73
2021/06/10 09:24:28;;;;;;;11.82;3.60;;;27.00;99.90;;;;;;5053290;28;21407;-71
2021/06/10 09:27:07;;;;;;;7.05;2.80;;;27.00;99.90;;;;;;5054257;28;20961;-71
2021/06/10 09:29:50;;;;;;;11.93;3.88;;;27.20;99.90;;;;;;5055801;28;20899;-71
2021/06/10 09:32:27;;;;;;;7.32;3.47;;;27.40;99.90;;;;;;5059012;28;20587;-71
2021/06/10 09:35:05;;;;;;;10.75;3.63;;;27.60;99.90;;;;;;5052215;28;20305;-74
2021/06/10 09:37:42;;;;;;;7.60;3.10;;;27.70;99.90;;;;;;5059990;28;20742;-71
2021/06/10 09:40:18;;;;;;;9.10;3.50;;;27.50;99.90;;;;;;5035950;28;20813;-73
2021/06/10 09:42:45;;;;;;;6.90;3.50;;;27.50;99.90;;;;;;5042662;28;20256;-74
2021/06/10 09:45:15;;;;;;;9.20;3.63;;;27.60;99.90;;;;;;5040286;28;20186;-73
2021/06/10 09:47:52;;;;;;;15.57;3.70;;;27.50;99.90;;;;;;5040842;28;20759;-73
2021/06/10 09:50:28;;;;;;;12.00;3.90;;;27.20;99.90;;;;;;5058205;28;20663;-74
2021/06/10 09:53:16;;;;;;;8.52;3.53;;;27.60;99.90;;;;;;5060614;28;20797;-73
2021/06/10 09:55:46;;;;;;;14.30;3.40;;;27.90;99.90;;;;;;5058668;28;20231;-73
2021/06/10 09:58:12;;;;;;;10.48;3.25;;;27.90;99.90;;;;;;5060129;28;20180;-74
2021/06/10 10:00:46;;;;;;;7.90;3.25;;;28.10;99.90;;;;;;5055181;28;20210;-72
2021/06/10 10:03:44;;;;;;;11.20;4.18;;;28.10;99.90;;;;;;5048881;28;20183;-72
2021/06/10 10:06:30;;;;;;;13.38;3.72;;;28.10;99.90;;;;;;5053397;28;20568;-73
2021/06/10 10:09:05;;;;;;;15.60;3.50;;;28.00;99.90;;;;;;5042565;28;20275;-71
2021/06/10 10:11:34;;;;;;;8.55;3.45;;;28.00;99.90;;;;;;5055193;28;20187;-75
2021/06/10 10:14:05;;;;;;;10.57;3.33;;;27.90;99.90;;;;;;5056099;28;21005;-75
2021/06/10 10:16:36;;;;;;;16.30;4.03;;;27.80;99.90;;;;;;5040067;28;20193;-73
2021/06/10 10:19:04;;;;;;;11.10;3.92;;;27.90;99.90;;;;;;5055681;28;20710;-73
2021/06/10 10:21:36;;;;;;;10.13;3.70;;;27.60;99.90;;;;;;5057244;28;20203;-72
2021/06/10 10:24:07;;;;;;;12.02;3.47;;;27.90;99.90;;;;;;5059205;28;20183;-73
2021/06/10 10:26:36;;;;;;;9.50;3.40;;;28.10;99.90;;;;;;5063246;28;20271;-74
2021/06/10 10:29:06;;;;;;;9.43;3.17;;;28.10;99.90;;;;;;5060620;28;20195;-73
2021/06/10 10:31:35;;;;;;;11.13;3.25;;;27.90;99.90;;;;;;5062397;28;20182;-74
2021/06/10 10:34:02;;;;;;;11.00;3.20;;;27.60;99.90;;;;;;5061098;28;20183;-74
2021/06/10 10:36:31;;;;;;;11.00;3.58;;;27.70;99.90;;;;;;5058611;28;20704;-73
2021/06/10 10:39:09;;;;;;;8.27;3.13;;;27.70;99.90;;;;;;5058109;28;20222;-72
2021/06/10 10:41:55;;;;;;;14.02;3.35;;;27.60;99.90;;;;;;5041642;28;20186;-75
2021/06/10 10:44:30;;;;;;;15.52;3.28;;;27.50;99.90;;;;;;5063819;28;20570;-72
2021/06/10 10:47:10;;;;;;;12.40;3.60;;;27.60;99.90;;;;;;5043525;28;21022;-75
2021/06/10 10:49:46;;;;;;;8.68;3.17;;;27.70;99.90;;;;;;5061746;28;20232;-73
2021/06/10 10:52:24;;;;;;;12.45;3.42;;;27.90;99.90;;;;;;5063000;28;20210;-75
2021/06/10 10:54:51;;;;;;;10.55;3.65;;;27.90;99.90;;;;;;5063460;28;20310;-76
2021/06/10 10:57:39;;;;;;;14.00;3.88;;;27.90;99.90;;;;;;5059227;28;20205;-73
2021/06/10 11:00:13;;;;;;;12.70;3.90;;;27.70;99.90;;;;;;5064355;28;20206;-72
2021/06/10 11:03:29;;;;;;;10.43;2.95;;;27.90;99.90;;;;;;5066812;28;20689;-71
2021/06/10 11:05:58;;;;;;;8.50;3.05;;;28.10;99.90;;;;;;5064895;28;20207;-75
2021/06/10 11:12:01;;;;;;;9.45;3.78;;;27.60;99.90;;;;;;5061935;28;20186;-73
2021/06/10 11:14:49;;;;;;;16.85;4.10;;;27.30;99.90;;;;;;5084729;28;20246;-74
2021/06/10 11:17:32;;;;;;;9.32;3.70;;;27.30;99.90;;;;;;5049996;28;20175;-73
2021/06/10 11:20:10;;;;;;;10.90;4.03;;;27.20;99.90;;;;;;5050700;28;20227;-73
2021/06/10 11:22:48;;;;;;;10.40;3.80;;;27.20;99.90;;;;;;5050322;28;20179;-73
2021/06/10 11:25:26;;;;;;;8.10;3.40;;;26.90;99.90;;;;;;5061527;28;20198;-73
2021/06/10 11:28:14;;;;;;;11.60;3.85;;;27.00;99.90;;;;;;5064265;28;20520;-73
2021/06/10 11:30:40;;;;;;;8.52;3.55;;;27.40;99.90;;;;;;5066386;28;20179;-74
2021/06/10 11:33:29;;;;;;;8.02;3.50;;;27.30;99.90;;;;;;5062875;28;20195;-75
2021/06/10 11:36:06;;;;;;;8.23;3.63;;;27.40;99.90;;;;;;5062332;28;20685;-74
2021/06/10 11:38:38;;;;;;;8.77;3.83;;;27.40;99.90;;;;;;5065544;28;20187;-76
2021/06/10 11:41:13;;;;;;;11.68;3.53;;;27.20;99.90;;;;;;5047586;28;20183;-73
2021/06/10 11:43:55;;;;;;;13.00;3.83;;;27.20;99.90;;;;;;5064630;28;20686;-75
2021/06/10 11:46:34;;;;;;;9.23;3.80;;;27.00;99.90;;;;;;5050859;28;20269;-73
2021/06/10 11:49:00;;;;;;;8.82;3.80;;;26.40;99.90;;;;;;5067398;28;20187;-73
2021/06/10 11:51:32;;;;;;;12.15;3.83;;;26.30;99.90;;;;;;5063470;28;20228;-73
2021/06/10 11:54:17;;;;;;;14.32;4.32;;;26.40;99.90;;;;;;5049876;28;20198;-72
2021/06/10 11:56:49;;;;;;;13.40;3.90;;;26.70;99.90;;;;;;5064354;28;20201;-73
2021/06/10 11:59:29;;;;;;;9.60;3.83;;;26.40;99.90;;;;;;5072060;28;20239;-74
2021/06/10 12:02:12;;;;;;;9.85;4.25;;;26.30;99.90;;;;;;5064509;28;20217;-74
2021/06/10 12:04:40;;;;;;;13.50;4.35;;;26.30;99.90;;;;;;5045987;28;20207;-74
2021/06/10 12:07:13;;;;;;;12.65;4.43;;;26.70;99.90;;;;;;5045183;28;20184;-73
2021/06/10 12:09:54;;;;;;;12.65;3.58;;;26.70;99.90;;;;;;5060583;28;20692;-73
2021/06/10 12:12:48;;;;;;;12.63;4.30;;;26.90;99.90;;;;;;5058047;28;20317;-73
2021/06/10 12:15:24;;;;;;;11.80;3.67;;;26.70;99.90;;;;;;5063719;28;20269;-72
2021/06/10 12:18:15;;;;;;;9.73;3.80;;;26.80;99.90;;;;;;5060315;28;20194;-73
2021/06/10 12:20:47;;;;;;;9.77;4.55;;;26.30;99.90;;;;;;5040373;28;20211;-70
2021/06/10 12:23:17;;;;;;;9.95;4.78;;;26.50;99.90;;;;;;5065711;28;20218;-73
2021/06/10 12:26:01;;;;;;;12.00;4.05;;;26.50;99.90;;;;;;5055019;28;20204;-72
2021/06/10 12:28:31;;;;;;;14.88;4.65;;;26.70;99.90;;;;;;5063006;28;20214;-73
2021/06/10 12:31:07;;;;;;;13.13;4.68;;;26.90;99.90;;;;;;5060973;28;20197;-74
2021/06/10 12:33:36;;;;;;;11.32;4.63;;;26.70;99.90;;;;;;5064472;28;20190;-74
2021/06/10 12:36:11;;;;;;;12.07;3.97;;;26.70;99.90;;;;;;5064979;28;20286;-73
2021/06/10 12:38:38;;;;;;;11.75;4.20;;;26.40;99.90;;;;;;5066714;28;20179;-73
2021/06/10 12:41:24;;;;;;;11.27;3.80;;;26.50;99.90;;;;;;5064578;28;21075;-73
2021/06/10 12:43:52;;;;;;;10.63;3.90;;;26.50;99.90;;;;;;5063852;28;20194;-71
2021/06/10 12:46:21;;;;;;;9.50;3.97;;;26.70;99.90;;;;;;5061154;28;20225;-71
2021/06/10 12:48:57;;;;;;;9.05;4.50;;;26.70;99.90;;;;;;5063094;28;20252;-74
2021/06/10 12:51:32;;;;;;;13.85;3.95;;;26.70;99.90;;;;;;5064610;28;20285;-74
2021/06/10 12:54:13;;;;;;;12.73;4.45;;;26.40;99.90;;;;;;5048629;28;20559;-74
2021/06/10 12:56:54;;;;;;;13.35;4.80;;;26.30;99.90;;;;;;5065060;28;20761;-74
2021/06/10 12:59:35;;;;;;;10.25;4.13;;;26.30;99.90;;;;;;5059334;28;20294;-73
2021/06/10 13:02:16;;;;;;;10.38;4.50;;;26.40;99.90;;;;;;5049209;28;20198;-74
2021/06/10 13:04:47;;;;;;;15.27;4.78;;;25.90;99.90;;;;;;5061051;28;20233;-73